Bata, Equatorial Guinea
Current Conditions -  °F | °C
As of 10:00 AM on Thursday 27 Nov 2014 (Local Time) from FKKD Reporting Station
Broken Clouds Broken Clouds  
Wind Chill: 84°   Ceiling: 1300
Heat Index: 94°   Visibility: 6mi
Dew Point: 77°   Wind: 5mph
Humidity: 79%   Direction: 220°SW
Pressure: 29.88"   Gusts: NA
Location:  1.87°N, 9.76°E
Report Text: FKKD 270900Z 22004KT 9999 BKN013 FEW016CB BKN300 29/25 Q1012 BECMG BKN016 FEW020CB
Loading
Personal Weather Stations






























Interactive Weather Map New forecast layout! Learn more

10-Day Weather Forecast

Advertisements
Track Severe Weather on mobile